sensor_id;sensor_type;location;lat;lon;timestamp;P1;durP1;ratioP1;P2;durP2;ratioP2
71836;SDS011;59686;51.716;7.016;2024-01-10T00:01:34;5.67;;;3.73;;
71836;SDS011;59686;51.716;7.016;2024-01-10T00:04:00;5.47;;;3.93;;
71836;SDS011;59686;51.716;7.016;2024-01-10T00:06:25;6.13;;;4.20;;
71836;SDS011;59686;51.716;7.016;2024-01-10T00:08:51;5.57;;;3.63;;
71836;SDS011;59686;51.716;7.016;2024-01-10T00:11:17;6.93;;;4.27;;
71836;SDS011;59686;51.716;7.016;2024-01-10T00:13:43;5.93;;;3.83;;
71836;SDS011;59686;51.716;7.016;2024-01-10T00:16:09;6.33;;;4.33;;
71836;SDS011;59686;51.716;7.016;2024-01-10T00:21:18;7.70;;;4.37;;
71836;SDS011;59686;51.716;7.016;2024-01-10T00:23:43;6.80;;;4.00;;
71836;SDS011;59686;51.716;7.016;2024-01-10T00:26:09;7.50;;;3.97;;
71836;SDS011;59686;51.716;7.016;2024-01-10T00:28:35;7.63;;;4.13;;
71836;SDS011;59686;51.716;7.016;2024-01-10T00:31:00;6.17;;;4.10;;
71836;SDS011;59686;51.716;7.016;2024-01-10T00:33:26;7.17;;;4.50;;
71836;SDS011;59686;51.716;7.016;2024-01-10T00:35:59;6.17;;;4.10;;
71836;SDS011;59686;51.716;7.016;2024-01-10T00:38:25;6.50;;;4.27;;
71836;SDS011;59686;51.716;7.016;2024-01-10T00:40:50;6.60;;;4.17;;
71836;SDS011;59686;51.716;7.016;2024-01-10T00:43:16;7.60;;;3.80;;
71836;SDS011;59686;51.716;7.016;2024-01-10T00:45:42;6.07;;;4.03;;
71836;SDS011;59686;51.716;7.016;2024-01-10T00:48:08;5.57;;;3.90;;
71836;SDS011;59686;51.716;7.016;2024-01-10T00:50:51;5.60;;;3.70;;
71836;SDS011;59686;51.716;7.016;2024-01-10T00:53:16;5.87;;;4.07;;
71836;SDS011;59686;51.716;7.016;2024-01-10T00:55:42;7.20;;;3.80;;
71836;SDS011;59686;51.716;7.016;2024-01-10T00:58:08;5.43;;;3.87;;
71836;SDS011;59686;51.716;7.016;2024-01-10T01:00:33;5.90;;;4.03;;
71836;SDS011;59686;51.716;7.016;2024-01-10T01:02:59;4.33;;;3.67;;
71836;SDS011;59686;51.716;7.016;2024-01-10T01:05:25;6.77;;;4.00;;
71836;SDS011;59686;51.716;7.016;2024-01-10T01:07:50;7.17;;;4.30;;
71836;SDS011;59686;51.716;7.016;2024-01-10T01:10:16;7.53;;;4.60;;
71836;SDS011;59686;51.716;7.016;2024-01-10T01:12:42;6.43;;;4.10;;
71836;SDS011;59686;51.716;7.016;2024-01-10T01:15:08;6.93;;;4.43;;
71836;SDS011;59686;51.716;7.016;2024-01-10T01:17:33;6.77;;;3.83;;
71836;SDS011;59686;51.716;7.016;2024-01-10T01:19:59;7.00;;;4.40;;
71836;SDS011;59686;51.716;7.016;2024-01-10T01:25:11;6.27;;;4.17;;
71836;SDS011;59686;51.716;7.016;2024-01-10T01:27:37;6.53;;;4.07;;
71836;SDS011;59686;51.716;7.016;2024-01-10T01:30:02;6.77;;;4.00;;
71836;SDS011;59686;51.716;7.016;2024-01-10T01:32:28;7.07;;;3.90;;
71836;SDS011;59686;51.716;7.016;2024-01-10T01:34:54;5.30;;;3.87;;
71836;SDS011;59686;51.716;7.016;2024-01-10T01:37:19;8.47;;;4.23;;
71836;SDS011;59686;51.716;7.016;2024-01-10T01:39:45;6.43;;;4.07;;
71836;SDS011;59686;51.716;7.016;2024-01-10T01:42:11;5.33;;;3.73;;
71836;SDS011;59686;51.716;7.016;2024-01-10T01:44:36;6.30;;;4.47;;
71836;SDS011;59686;51.716;7.016;2024-01-10T01:47:02;6.77;;;4.00;;
71836;SDS011;59686;51.716;7.016;2024-01-10T01:49:28;6.47;;;4.23;;
71836;SDS011;59686;51.716;7.016;2024-01-10T01:51:55;7.23;;;4.50;;
71836;SDS011;59686;51.716;7.016;2024-01-10T01:54:21;7.93;;;4.40;;
71836;SDS011;59686;51.716;7.016;2024-01-10T01:56:47;8.10;;;4.57;;
71836;SDS011;59686;51.716;7.016;2024-01-10T01:59:13;6.30;;;4.10;;
71836;SDS011;59686;51.716;7.016;2024-01-10T02:04:35;6.73;;;4.17;;
71836;SDS011;59686;51.716;7.016;2024-01-10T02:07:05;5.23;;;4.07;;
71836;SDS011;59686;51.716;7.016;2024-01-10T02:09:31;7.67;;;4.50;;
71836;SDS011;59686;51.716;7.016;2024-01-10T02:11:57;7.23;;;4.60;;
71836;SDS011;59686;51.716;7.016;2024-01-10T02:14:22;8.50;;;4.63;;
71836;SDS011;59686;51.716;7.016;2024-01-10T02:16:48;6.97;;;4.30;;
71836;SDS011;59686;51.716;7.016;2024-01-10T02:19:21;5.83;;;3.97;;
71836;SDS011;59686;51.716;7.016;2024-01-10T02:21:47;7.40;;;3.87;;
71836;SDS011;59686;51.716;7.016;2024-01-10T02:24:13;8.43;;;4.50;;
71836;SDS011;59686;51.716;7.016;2024-01-10T02:26:39;5.47;;;3.93;;
71836;SDS011;59686;51.716;7.016;2024-01-10T02:29:05;6.83;;;4.23;;
71836;SDS011;59686;51.716;7.016;2024-01-10T02:31:31;7.03;;;4.30;;
71836;SDS011;59686;51.716;7.016;2024-01-10T02:33:57;6.97;;;4.10;;
71836;SDS011;59686;51.716;7.016;2024-01-10T02:36:22;5.27;;;4.07;;
71836;SDS011;59686;51.716;7.016;2024-01-10T02:38:48;5.17;;;3.87;;
71836;SDS011;59686;51.716;7.016;2024-01-10T02:41:15;6.50;;;4.07;;
71836;SDS011;59686;51.716;7.016;2024-01-10T02:43:40;6.20;;;4.50;;
71836;SDS011;59686;51.716;7.016;2024-01-10T02:46:06;6.83;;;4.43;;
71836;SDS011;59686;51.716;7.016;2024-01-10T02:48:32;5.70;;;3.97;;
71836;SDS011;59686;51.716;7.016;2024-01-10T02:50:57;5.80;;;4.23;;
71836;SDS011;59686;51.716;7.016;2024-01-10T02:53:23;6.57;;;4.40;;
71836;SDS011;59686;51.716;7.016;2024-01-10T02:55:49;7.07;;;4.43;;
71836;SDS011;59686;51.716;7.016;2024-01-10T02:58:15;6.53;;;4.50;;
71836;SDS011;59686;51.716;7.016;2024-01-10T03:00:41;5.90;;;3.97;;
71836;SDS011;59686;51.716;7.016;2024-01-10T03:03:06;6.30;;;4.20;;
71836;SDS011;59686;51.716;7.016;2024-01-10T03:05:32;7.17;;;4.20;;
71836;SDS011;59686;51.716;7.016;2024-01-10T03:07:58;6.43;;;4.30;;
71836;SDS011;59686;51.716;7.016;2024-01-10T03:10:23;7.23;;;4.50;;
71836;SDS011;59686;51.716;7.016;2024-01-10T03:12:49;6.10;;;4.00;;
71836;SDS011;59686;51.716;7.016;2024-01-10T03:15:14;6.50;;;4.50;;
71836;SDS011;59686;51.716;7.016;2024-01-10T03:17:40;6.53;;;4.20;;
71836;SDS011;59686;51.716;7.016;2024-01-10T03:20:06;7.27;;;4.73;;
71836;SDS011;59686;51.716;7.016;2024-01-10T03:22:35;5.83;;;4.03;;
71836;SDS011;59686;51.716;7.016;2024-01-10T03:25:02;7.27;;;4.60;;
71836;SDS011;59686;51.716;7.016;2024-01-10T03:27:28;6.23;;;4.07;;
71836;SDS011;59686;51.716;7.016;2024-01-10T03:29:53;6.67;;;4.33;;
71836;SDS011;59686;51.716;7.016;2024-01-10T03:32:19;6.90;;;4.50;;
71836;SDS011;59686;51.716;7.016;2024-01-10T03:34:45;8.37;;;4.47;;
71836;SDS011;59686;51.716;7.016;2024-01-10T03:37:11;6.67;;;4.23;;
71836;SDS011;59686;51.716;7.016;2024-01-10T03:39:48;6.17;;;4.47;;
71836;SDS011;59686;51.716;7.016;2024-01-10T03:42:13;6.33;;;4.23;;
71836;SDS011;59686;51.716;7.016;2024-01-10T03:44:40;7.57;;;4.10;;
71836;SDS011;59686;51.716;7.016;2024-01-10T03:47:06;9.03;;;4.60;;
71836;SDS011;59686;51.716;7.016;2024-01-10T03:49:32;6.63;;;4.87;;
71836;SDS011;59686;51.716;7.016;2024-01-10T03:51:57;7.20;;;4.60;;
71836;SDS011;59686;51.716;7.016;2024-01-10T03:54:23;9.40;;;4.57;;
71836;SDS011;59686;51.716;7.016;2024-01-10T03:56:49;7.27;;;4.80;;
71836;SDS011;59686;51.716;7.016;2024-01-10T04:01:50;7.83;;;4.57;;
71836;SDS011;59686;51.716;7.016;2024-01-10T04:04:16;7.40;;;4.50;;
71836;SDS011;59686;51.716;7.016;2024-01-10T04:06:41;8.53;;;4.77;;
71836;SDS011;59686;51.716;7.016;2024-01-10T04:09:07;6.40;;;4.07;;
71836;SDS011;59686;51.716;7.016;2024-01-10T04:11:35;8.20;;;4.40;;
71836;SDS011;59686;51.716;7.016;2024-01-10T04:14:01;6.00;;;4.60;;
71836;SDS011;59686;51.716;7.016;2024-01-10T04:16:27;7.23;;;4.47;;
71836;SDS011;59686;51.716;7.016;2024-01-10T04:18:52;7.00;;;4.67;;
71836;SDS011;59686;51.716;7.016;2024-01-10T04:21:25;6.17;;;4.07;;
71836;SDS011;59686;51.716;7.016;2024-01-10T04:23:51;7.00;;;4.80;;
71836;SDS011;59686;51.716;7.016;2024-01-10T04:26:17;7.93;;;4.87;;
71836;SDS011;59686;51.716;7.016;2024-01-10T04:28:43;7.27;;;4.87;;
71836;SDS011;59686;51.716;7.016;2024-01-10T04:31:08;6.23;;;4.30;;
71836;SDS011;59686;51.716;7.016;2024-01-10T04:33:34;6.57;;;4.13;;
71836;SDS011;59686;51.716;7.016;2024-01-10T04:36:01;7.73;;;4.70;;
71836;SDS011;59686;51.716;7.016;2024-01-10T04:38:27;6.43;;;4.53;;
71836;SDS011;59686;51.716;7.016;2024-01-10T04:40:52;8.77;;;4.53;;
71836;SDS011;59686;51.716;7.016;2024-01-10T04:43:18;6.20;;;4.20;;
71836;SDS011;59686;51.716;7.016;2024-01-10T04:45:45;6.13;;;3.87;;
71836;SDS011;59686;51.716;7.016;2024-01-10T04:48:10;7.80;;;5.07;;
71836;SDS011;59686;51.716;7.016;2024-01-10T04:50:36;6.60;;;4.50;;
71836;SDS011;59686;51.716;7.016;2024-01-10T04:53:02;7.93;;;4.97;;
71836;SDS011;59686;51.716;7.016;2024-01-10T04:55:43;8.17;;;4.90;;
71836;SDS011;59686;51.716;7.016;2024-01-10T04:58:09;6.90;;;4.60;;
71836;SDS011;59686;51.716;7.016;2024-01-10T05:00:34;7.43;;;4.60;;
71836;SDS011;59686;51.716;7.016;2024-01-10T05:03:00;7.87;;;4.80;;
71836;SDS011;59686;51.716;7.016;2024-01-10T05:05:28;6.87;;;4.70;;
71836;SDS011;59686;51.716;7.016;2024-01-10T05:07:54;7.37;;;4.53;;
71836;SDS011;59686;51.716;7.016;2024-01-10T05:10:19;7.10;;;4.73;;
71836;SDS011;59686;51.716;7.016;2024-01-10T05:12:45;7.40;;;4.67;;
71836;SDS011;59686;51.716;7.016;2024-01-10T05:15:11;6.53;;;4.63;;
71836;SDS011;59686;51.716;7.016;2024-01-10T05:17:36;7.33;;;4.67;;
71836;SDS011;59686;51.716;7.016;2024-01-10T05:20:20;7.13;;;4.60;;
71836;SDS011;59686;51.716;7.016;2024-01-10T05:22:46;7.57;;;4.60;;
71836;SDS011;59686;51.716;7.016;2024-01-10T05:25:12;8.40;;;5.00;;
71836;SDS011;59686;51.716;7.016;2024-01-10T05:27:37;8.83;;;4.90;;
71836;SDS011;59686;51.716;7.016;2024-01-10T05:30:03;7.33;;;4.67;;
71836;SDS011;59686;51.716;7.016;2024-01-10T05:35:04;6.83;;;4.67;;
71836;SDS011;59686;51.716;7.016;2024-01-10T05:37:30;7.23;;;4.80;;
71836;SDS011;59686;51.716;7.016;2024-01-10T05:39:56;7.40;;;4.97;;
71836;SDS011;59686;51.716;7.016;2024-01-10T05:42:22;8.23;;;5.30;;
71836;SDS011;59686;51.716;7.016;2024-01-10T05:44:47;8.87;;;5.40;;
71836;SDS011;59686;51.716;7.016;2024-01-10T05:47:13;7.53;;;4.67;;
71836;SDS011;59686;51.716;7.016;2024-01-10T05:49:50;8.83;;;5.00;;
71836;SDS011;59686;51.716;7.016;2024-01-10T05:52:15;7.73;;;5.57;;
71836;SDS011;59686;51.716;7.016;2024-01-10T05:54:41;9.37;;;5.63;;
71836;SDS011;59686;51.716;7.016;2024-01-10T05:57:07;7.77;;;4.93;;
71836;SDS011;59686;51.716;7.016;2024-01-10T05:59:32;7.80;;;4.97;;
71836;SDS011;59686;51.716;7.016;2024-01-10T06:01:58;7.20;;;5.20;;
71836;SDS011;59686;51.716;7.016;2024-01-10T06:06:56;8.07;;;4.97;;
71836;SDS011;59686;51.716;7.016;2024-01-10T06:09:23;11.93;;;5.47;;
71836;SDS011;59686;51.716;7.016;2024-01-10T06:11:49;10.40;;;5.37;;
71836;SDS011;59686;51.716;7.016;2024-01-10T06:14:14;9.90;;;5.77;;
71836;SDS011;59686;51.716;7.016;2024-01-10T06:19:10;9.00;;;5.53;;
71836;SDS011;59686;51.716;7.016;2024-01-10T06:21:36;8.93;;;5.03;;
71836;SDS011;59686;51.716;7.016;2024-01-10T06:24:03;7.77;;;5.57;;
71836;SDS011;59686;51.716;7.016;2024-01-10T06:26:29;8.30;;;5.27;;
71836;SDS011;59686;51.716;7.016;2024-01-10T06:28:54;7.93;;;5.17;;
71836;SDS011;59686;51.716;7.016;2024-01-10T06:31:20;9.70;;;5.60;;
71836;SDS011;59686;51.716;7.016;2024-01-10T06:33:46;9.60;;;5.80;;
71836;SDS011;59686;51.716;7.016;2024-01-10T06:36:12;8.97;;;5.47;;
71836;SDS011;59686;51.716;7.016;2024-01-10T06:38:38;10.70;;;5.43;;
71836;SDS011;59686;51.716;7.016;2024-01-10T06:41:10;9.20;;;5.70;;
71836;SDS011;59686;51.716;7.016;2024-01-10T06:43:39;8.60;;;5.20;;
71836;SDS011;59686;51.716;7.016;2024-01-10T06:46:08;10.43;;;5.33;;
71836;SDS011;59686;51.716;7.016;2024-01-10T06:48:35;9.20;;;6.10;;
71836;SDS011;59686;51.716;7.016;2024-01-10T06:51:01;10.20;;;6.10;;
71836;SDS011;59686;51.716;7.016;2024-01-10T06:53:26;10.80;;;6.00;;
71836;SDS011;59686;51.716;7.016;2024-01-10T06:55:57;9.27;;;5.83;;
71836;SDS011;59686;51.716;7.016;2024-01-10T06:58:23;9.90;;;6.13;;
71836;SDS011;59686;51.716;7.016;2024-01-10T07:00:48;9.63;;;6.17;;
71836;SDS011;59686;51.716;7.016;2024-01-10T07:03:15;9.27;;;6.23;;
71836;SDS011;59686;51.716;7.016;2024-01-10T07:05:41;8.67;;;6.00;;
71836;SDS011;59686;51.716;7.016;2024-01-10T07:08:09;10.00;;;6.03;;
71836;SDS011;59686;51.716;7.016;2024-01-10T07:10:39;10.47;;;6.60;;
71836;SDS011;59686;51.716;7.016;2024-01-10T07:13:05;9.43;;;5.63;;
71836;SDS011;59686;51.716;7.016;2024-01-10T07:15:30;9.37;;;6.47;;
71836;SDS011;59686;51.716;7.016;2024-01-10T07:17:56;9.13;;;6.00;;
71836;SDS011;59686;51.716;7.016;2024-01-10T07:20:21;10.27;;;5.97;;
71836;SDS011;59686;51.716;7.016;2024-01-10T07:22:49;9.10;;;6.00;;
71836;SDS011;59686;51.716;7.016;2024-01-10T07:25:16;9.60;;;6.17;;
71836;SDS011;59686;51.716;7.016;2024-01-10T07:27:42;9.27;;;6.43;;
71836;SDS011;59686;51.716;7.016;2024-01-10T07:30:08;9.43;;;6.43;;
71836;SDS011;59686;51.716;7.016;2024-01-10T07:32:44;11.47;;;6.90;;
71836;SDS011;59686;51.716;7.016;2024-01-10T07:35:11;9.10;;;6.23;;
71836;SDS011;59686;51.716;7.016;2024-01-10T07:37:39;10.83;;;6.70;;
71836;SDS011;59686;51.716;7.016;2024-01-10T07:40:18;9.27;;;6.00;;
71836;SDS011;59686;51.716;7.016;2024-01-10T07:42:44;11.03;;;6.77;;
71836;SDS011;59686;51.716;7.016;2024-01-10T07:45:10;11.83;;;6.70;;
71836;SDS011;59686;51.716;7.016;2024-01-10T07:47:36;10.53;;;6.83;;
71836;SDS011;59686;51.716;7.016;2024-01-10T07:50:04;10.20;;;6.27;;
71836;SDS011;59686;51.716;7.016;2024-01-10T07:52:33;10.40;;;6.43;;
71836;SDS011;59686;51.716;7.016;2024-01-10T07:54:59;9.47;;;6.70;;
71836;SDS011;59686;51.716;7.016;2024-01-10T08:00:19;11.20;;;6.90;;
71836;SDS011;59686;51.716;7.016;2024-01-10T08:02:45;10.77;;;6.60;;
71836;SDS011;59686;51.716;7.016;2024-01-10T08:05:11;10.33;;;6.47;;
71836;SDS011;59686;51.716;7.016;2024-01-10T08:07:37;11.40;;;7.20;;
71836;SDS011;59686;51.716;7.016;2024-01-10T08:10:04;13.90;;;7.47;;
71836;SDS011;59686;51.716;7.016;2024-01-10T08:12:30;10.43;;;6.83;;
71836;SDS011;59686;51.716;7.016;2024-01-10T08:14:56;10.60;;;7.00;;
71836;SDS011;59686;51.716;7.016;2024-01-10T08:17:21;12.20;;;7.20;;
71836;SDS011;59686;51.716;7.016;2024-01-10T08:19:48;10.10;;;6.50;;
71836;SDS011;59686;51.716;7.016;2024-01-10T08:22:14;10.13;;;7.00;;
71836;SDS011;59686;51.716;7.016;2024-01-10T08:24:40;11.10;;;6.57;;
71836;SDS011;59686;51.716;7.016;2024-01-10T08:27:06;10.90;;;6.77;;
71836;SDS011;59686;51.716;7.016;2024-01-10T08:32:21;11.10;;;7.37;;
71836;SDS011;59686;51.716;7.016;2024-01-10T08:34:47;10.30;;;6.97;;
71836;SDS011;59686;51.716;7.016;2024-01-10T08:37:13;11.00;;;6.37;;
71836;SDS011;59686;51.716;7.016;2024-01-10T08:39:42;12.87;;;7.53;;
71836;SDS011;59686;51.716;7.016;2024-01-10T08:42:24;11.83;;;6.93;;
71836;SDS011;59686;51.716;7.016;2024-01-10T08:44:50;12.90;;;7.30;;
71836;SDS011;59686;51.716;7.016;2024-01-10T08:47:16;14.17;;;7.60;;
71836;SDS011;59686;51.716;7.016;2024-01-10T08:49:41;10.10;;;6.83;;
71836;SDS011;59686;51.716;7.016;2024-01-10T08:52:07;11.43;;;7.20;;
71836;SDS011;59686;51.716;7.016;2024-01-10T08:54:33;12.10;;;7.53;;
71836;SDS011;59686;51.716;7.016;2024-01-10T08:57:04;12.30;;;7.40;;
71836;SDS011;59686;51.716;7.016;2024-01-10T08:59:29;11.50;;;7.17;;
71836;SDS011;59686;51.716;7.016;2024-01-10T09:01:55;13.20;;;7.90;;
71836;SDS011;59686;51.716;7.016;2024-01-10T09:04:21;12.27;;;7.37;;
71836;SDS011;59686;51.716;7.016;2024-01-10T09:06:46;12.37;;;7.70;;
71836;SDS011;59686;51.716;7.016;2024-01-10T09:09:12;13.53;;;7.90;;
71836;SDS011;59686;51.716;7.016;2024-01-10T09:11:38;12.43;;;7.10;;
71836;SDS011;59686;51.716;7.016;2024-01-10T09:14:04;14.20;;;7.97;;
71836;SDS011;59686;51.716;7.016;2024-01-10T09:16:29;12.67;;;7.90;;
71836;SDS011;59686;51.716;7.016;2024-01-10T09:18:55;14.73;;;8.23;;
71836;SDS011;59686;51.716;7.016;2024-01-10T09:21:22;12.97;;;7.97;;
71836;SDS011;59686;51.716;7.016;2024-01-10T09:23:50;11.67;;;7.50;;
71836;SDS011;59686;51.716;7.016;2024-01-10T09:26:19;11.87;;;7.43;;
71836;SDS011;59686;51.716;7.016;2024-01-10T09:28:45;11.57;;;7.97;;
71836;SDS011;59686;51.716;7.016;2024-01-10T09:31:10;12.10;;;7.47;;
71836;SDS011;59686;51.716;7.016;2024-01-10T09:33:36;12.00;;;7.87;;
71836;SDS011;59686;51.716;7.016;2024-01-10T09:36:02;11.77;;;7.67;;
71836;SDS011;59686;51.716;7.016;2024-01-10T09:38:28;12.30;;;7.87;;
71836;SDS011;59686;51.716;7.016;2024-01-10T09:41:10;12.40;;;7.73;;
71836;SDS011;59686;51.716;7.016;2024-01-10T09:43:38;16.50;;;8.47;;
71836;SDS011;59686;51.716;7.016;2024-01-10T09:46:04;12.73;;;8.23;;
71836;SDS011;59686;51.716;7.016;2024-01-10T09:48:32;13.17;;;7.83;;
71836;SDS011;59686;51.716;7.016;2024-01-10T09:50:58;12.47;;;8.07;;
71836;SDS011;59686;51.716;7.016;2024-01-10T09:53:24;11.67;;;7.80;;
71836;SDS011;59686;51.716;7.016;2024-01-10T09:55:56;13.80;;;8.63;;
71836;SDS011;59686;51.716;7.016;2024-01-10T09:58:25;15.10;;;8.03;;
71836;SDS011;59686;51.716;7.016;2024-01-10T10:00:51;13.57;;;7.83;;
71836;SDS011;59686;51.716;7.016;2024-01-10T10:03:17;14.07;;;8.33;;
71836;SDS011;59686;51.716;7.016;2024-01-10T10:05:44;12.90;;;8.10;;
71836;SDS011;59686;51.716;7.016;2024-01-10T10:08:11;13.00;;;8.27;;
71836;SDS011;59686;51.716;7.016;2024-01-10T10:10:39;12.97;;;7.87;;
71836;SDS011;59686;51.716;7.016;2024-01-10T10:13:09;15.73;;;7.97;;
71836;SDS011;59686;51.716;7.016;2024-01-10T10:15:36;13.97;;;8.23;;
71836;SDS011;59686;51.716;7.016;2024-01-10T10:18:02;14.17;;;8.20;;
71836;SDS011;59686;51.716;7.016;2024-01-10T10:20:28;14.00;;;7.87;;
71836;SDS011;59686;51.716;7.016;2024-01-10T10:23:01;14.33;;;7.83;;
71836;SDS011;59686;51.716;7.016;2024-01-10T10:25:41;13.10;;;8.10;;
71836;SDS011;59686;51.716;7.016;2024-01-10T10:28:08;13.13;;;8.03;;
71836;SDS011;59686;51.716;7.016;2024-01-10T10:30:34;12.37;;;8.03;;
71836;SDS011;59686;51.716;7.016;2024-01-10T10:33:00;14.23;;;7.97;;
71836;SDS011;59686;51.716;7.016;2024-01-10T10:35:26;11.73;;;8.13;;
71836;SDS011;59686;51.716;7.016;2024-01-10T10:37:52;15.50;;;8.33;;
71836;SDS011;59686;51.716;7.016;2024-01-10T10:40:19;13.53;;;8.17;;
71836;SDS011;59686;51.716;7.016;2024-01-10T10:42:46;12.90;;;8.43;;
71836;SDS011;59686;51.716;7.016;2024-01-10T10:45:20;14.10;;;8.73;;
71836;SDS011;59686;51.716;7.016;2024-01-10T10:48:00;12.50;;;8.40;;
71836;SDS011;59686;51.716;7.016;2024-01-10T10:50:33;14.60;;;8.70;;
71836;SDS011;59686;51.716;7.016;2024-01-10T10:53:02;16.10;;;8.13;;
71836;SDS011;59686;51.716;7.016;2024-01-10T10:55:28;13.70;;;8.33;;
71836;SDS011;59686;51.716;7.016;2024-01-10T10:57:55;14.83;;;8.50;;
71836;SDS011;59686;51.716;7.016;2024-01-10T11:00:22;12.93;;;8.00;;
71836;SDS011;59686;51.716;7.016;2024-01-10T11:02:52;14.10;;;8.57;;
71836;SDS011;59686;51.716;7.016;2024-01-10T11:05:20;14.63;;;8.43;;
71836;SDS011;59686;51.716;7.016;2024-01-10T11:07:45;15.53;;;8.10;;
71836;SDS011;59686;51.716;7.016;2024-01-10T11:10:13;17.13;;;8.50;;
71836;SDS011;59686;51.716;7.016;2024-01-10T11:20:57;14.07;;;8.93;;
71836;SDS011;59686;51.716;7.016;2024-01-10T11:26:16;13.40;;;8.33;;
71836;SDS011;59686;51.716;7.016;2024-01-10T11:28:44;14.43;;;8.70;;
71836;SDS011;59686;51.716;7.016;2024-01-10T11:33:56;12.00;;;8.40;;
71836;SDS011;59686;51.716;7.016;2024-01-10T11:36:23;13.83;;;8.33;;
71836;SDS011;59686;51.716;7.016;2024-01-10T11:49:11;13.00;;;8.47;;
71836;SDS011;59686;51.716;7.016;2024-01-10T11:51:52;14.37;;;8.70;;
71836;SDS011;59686;51.716;7.016;2024-01-10T11:59:46;17.07;;;9.17;;
71836;SDS011;59686;51.716;7.016;2024-01-10T12:02:23;17.20;;;8.60;;
71836;SDS011;59686;51.716;7.016;2024-01-10T12:04:50;14.10;;;8.80;;
71836;SDS011;59686;51.716;7.016;2024-01-10T12:07:17;14.73;;;9.03;;
71836;SDS011;59686;51.716;7.016;2024-01-10T12:09:43;13.77;;;8.23;;
71836;SDS011;59686;51.716;7.016;2024-01-10T12:14:47;15.40;;;8.90;;
71836;SDS011;59686;51.716;7.016;2024-01-10T12:17:13;15.03;;;9.13;;
71836;SDS011;59686;51.716;7.016;2024-01-10T12:19:39;14.73;;;8.70;;
71836;SDS011;59686;51.716;7.016;2024-01-10T12:22:05;13.83;;;8.27;;
71836;SDS011;59686;51.716;7.016;2024-01-10T12:24:31;13.93;;;8.77;;
71836;SDS011;59686;51.716;7.016;2024-01-10T12:26:57;14.70;;;8.67;;
71836;SDS011;59686;51.716;7.016;2024-01-10T12:29:22;12.73;;;8.00;;
71836;SDS011;59686;51.716;7.016;2024-01-10T12:31:50;13.60;;;8.93;;
71836;SDS011;59686;51.716;7.016;2024-01-10T12:34:16;13.60;;;8.07;;
71836;SDS011;59686;51.716;7.016;2024-01-10T12:36:42;14.17;;;9.13;;
71836;SDS011;59686;51.716;7.016;2024-01-10T12:39:15;15.67;;;8.47;;
71836;SDS011;59686;51.716;7.016;2024-01-10T12:41:42;18.00;;;9.70;;
71836;SDS011;59686;51.716;7.016;2024-01-10T12:44:09;13.23;;;8.50;;
71836;SDS011;59686;51.716;7.016;2024-01-10T12:46:35;13.50;;;8.70;;
71836;SDS011;59686;51.716;7.016;2024-01-10T12:49:14;13.97;;;8.60;;
71836;SDS011;59686;51.716;7.016;2024-01-10T12:51:40;15.70;;;9.40;;
71836;SDS011;59686;51.716;7.016;2024-01-10T12:54:16;15.10;;;8.83;;
71836;SDS011;59686;51.716;7.016;2024-01-10T12:56:44;13.33;;;8.27;;
71836;SDS011;59686;51.716;7.016;2024-01-10T12:59:11;15.77;;;9.43;;
71836;SDS011;59686;51.716;7.016;2024-01-10T13:04:29;15.40;;;8.80;;
71836;SDS011;59686;51.716;7.016;2024-01-10T13:06:55;15.70;;;8.93;;
71836;SDS011;59686;51.716;7.016;2024-01-10T13:09:20;15.83;;;8.90;;
71836;SDS011;59686;51.716;7.016;2024-01-10T13:11:46;12.93;;;8.20;;
71836;SDS011;59686;51.716;7.016;2024-01-10T13:14:12;13.33;;;8.60;;
71836;SDS011;59686;51.716;7.016;2024-01-10T13:16:37;16.33;;;8.60;;
71836;SDS011;59686;51.716;7.016;2024-01-10T13:19:03;15.73;;;8.90;;
71836;SDS011;59686;51.716;7.016;2024-01-10T13:21:29;13.83;;;8.57;;
71836;SDS011;59686;51.716;7.016;2024-01-10T13:23:54;13.37;;;8.33;;
71836;SDS011;59686;51.716;7.016;2024-01-10T13:26:20;14.50;;;8.37;;
71836;SDS011;59686;51.716;7.016;2024-01-10T13:28:46;14.23;;;8.47;;
71836;SDS011;59686;51.716;7.016;2024-01-10T13:31:12;12.83;;;8.27;;
71836;SDS011;59686;51.716;7.016;2024-01-10T13:33:37;14.00;;;8.40;;
71836;SDS011;59686;51.716;7.016;2024-01-10T13:36:04;13.97;;;8.40;;
71836;SDS011;59686;51.716;7.016;2024-01-10T13:38:30;14.27;;;8.70;;
71836;SDS011;59686;51.716;7.016;2024-01-10T13:40:56;12.77;;;8.60;;
71836;SDS011;59686;51.716;7.016;2024-01-10T13:43:22;12.93;;;8.27;;
71836;SDS011;59686;51.716;7.016;2024-01-10T13:45:48;13.50;;;8.27;;
71836;SDS011;59686;51.716;7.016;2024-01-10T13:48:13;15.07;;;8.43;;
71836;SDS011;59686;51.716;7.016;2024-01-10T13:50:39;14.20;;;8.80;;
71836;SDS011;59686;51.716;7.016;2024-01-10T13:53:05;15.17;;;9.00;;
71836;SDS011;59686;51.716;7.016;2024-01-10T13:55:31;13.97;;;8.60;;
71836;SDS011;59686;51.716;7.016;2024-01-10T13:57:57;15.37;;;8.47;;
71836;SDS011;59686;51.716;7.016;2024-01-10T14:00:22;12.77;;;8.20;;
71836;SDS011;59686;51.716;7.016;2024-01-10T14:02:48;14.63;;;8.67;;
71836;SDS011;59686;51.716;7.016;2024-01-10T14:05:14;13.70;;;8.93;;
71836;SDS011;59686;51.716;7.016;2024-01-10T14:07:40;14.93;;;8.83;;
71836;SDS011;59686;51.716;7.016;2024-01-10T14:10:09;15.10;;;8.83;;
71836;SDS011;59686;51.716;7.016;2024-01-10T14:12:37;15.17;;;9.30;;
71836;SDS011;59686;51.716;7.016;2024-01-10T14:15:02;15.13;;;9.20;;
71836;SDS011;59686;51.716;7.016;2024-01-10T14:17:29;14.67;;;9.13;;
71836;SDS011;59686;51.716;7.016;2024-01-10T14:19:55;14.37;;;8.97;;
71836;SDS011;59686;51.716;7.016;2024-01-10T14:22:21;17.50;;;9.30;;
71836;SDS011;59686;51.716;7.016;2024-01-10T14:24:49;13.40;;;8.37;;
71836;SDS011;59686;51.716;7.016;2024-01-10T14:27:15;15.37;;;9.30;;
71836;SDS011;59686;51.716;7.016;2024-01-10T14:29:41;14.67;;;8.87;;
71836;SDS011;59686;51.716;7.016;2024-01-10T14:32:07;16.03;;;8.47;;
71836;SDS011;59686;51.716;7.016;2024-01-10T14:34:33;13.93;;;8.97;;
71836;SDS011;59686;51.716;7.016;2024-01-10T14:36:58;13.57;;;8.33;;
71836;SDS011;59686;51.716;7.016;2024-01-10T14:39:24;13.50;;;8.80;;
71836;SDS011;59686;51.716;7.016;2024-01-10T14:41:50;13.00;;;8.20;;
71836;SDS011;59686;51.716;7.016;2024-01-10T14:44:15;13.43;;;8.67;;
71836;SDS011;59686;51.716;7.016;2024-01-10T14:46:41;14.63;;;9.13;;
71836;SDS011;59686;51.716;7.016;2024-01-10T14:49:07;16.57;;;9.30;;
71836;SDS011;59686;51.716;7.016;2024-01-10T14:51:32;15.10;;;9.23;;
71836;SDS011;59686;51.716;7.016;2024-01-10T14:53:58;14.93;;;8.90;;
71836;SDS011;59686;51.716;7.016;2024-01-10T14:56:24;11.73;;;8.20;;
71836;SDS011;59686;51.716;7.016;2024-01-10T14:58:50;14.60;;;8.47;;
71836;SDS011;59686;51.716;7.016;2024-01-10T15:01:16;12.87;;;8.50;;
71836;SDS011;59686;51.716;7.016;2024-01-10T15:03:42;12.33;;;8.17;;
71836;SDS011;59686;51.716;7.016;2024-01-10T15:06:08;12.83;;;8.57;;
71836;SDS011;59686;51.716;7.016;2024-01-10T15:08:33;14.63;;;8.50;;
71836;SDS011;59686;51.716;7.016;2024-01-10T15:11:00;13.57;;;8.53;;
71836;SDS011;59686;51.716;7.016;2024-01-10T15:13:26;14.97;;;8.90;;
71836;SDS011;59686;51.716;7.016;2024-01-10T15:15:52;12.00;;;8.57;;
71836;SDS011;59686;51.716;7.016;2024-01-10T15:18:18;14.37;;;8.30;;
71836;SDS011;59686;51.716;7.016;2024-01-10T15:20:46;15.03;;;8.90;;
71836;SDS011;59686;51.716;7.016;2024-01-10T15:23:12;16.23;;;8.10;;
71836;SDS011;59686;51.716;7.016;2024-01-10T15:25:38;14.67;;;8.83;;
71836;SDS011;59686;51.716;7.016;2024-01-10T15:28:04;13.60;;;8.47;;
71836;SDS011;59686;51.716;7.016;2024-01-10T15:30:30;16.67;;;8.40;;
71836;SDS011;59686;51.716;7.016;2024-01-10T15:32:59;15.00;;;8.67;;
71836;SDS011;59686;51.716;7.016;2024-01-10T15:35:24;13.43;;;8.20;;
71836;SDS011;59686;51.716;7.016;2024-01-10T15:37:51;14.30;;;8.67;;